createdAt,value
2023-05-01T00:02:21.682Z,3.73
2023-05-01T00:05:31.868Z,3.75
2023-05-01T00:08:37.782Z,3.68
2023-05-01T00:11:44.582Z,3.67
2023-05-01T00:14:50.483Z,3.67
2023-05-01T00:17:57.617Z,3.68
2023-05-01T00:21:06.686Z,3.64
2023-05-01T00:24:13.478Z,3.61
2023-05-01T00:27:19.646Z,3.58
2023-05-01T00:30:28.057Z,3.54
2023-05-01T00:33:34.052Z,3.49
2023-05-01T00:36:43.599Z,3.45
2023-05-01T00:39:49.594Z,3.37
2023-05-01T00:42:56.397Z,3.33
2023-05-01T00:46:02.596Z,3.25
2023-05-01T00:49:09.365Z,3.12
2023-05-01T00:52:18.090Z,2.89
2023-05-01T00:55:26.101Z,2.89
2023-05-01T00:58:33.046Z,2.99
2023-05-01T01:01:42.264Z,2.99
2023-05-01T01:04:50.324Z,2.97
2023-05-01T01:08:14.361Z,2.94
2023-05-01T01:11:37.281Z,2.93
2023-05-01T01:14:58.563Z,2.83
2023-05-01T01:18:19.696Z,2.82
2023-05-01T01:21:36.847Z,2.78
2023-05-01T01:25:36.645Z,2.70
2023-05-01T01:29:35.193Z,2.68
2023-05-01T01:33:28.187Z,2.78
2023-05-01T01:36:47.287Z,2.83
2023-05-01T01:40:05.674Z,2.91
2023-05-01T01:43:21.328Z,3.04
2023-05-01T01:46:30.036Z,3.10
2023-05-01T01:49:44.026Z,3.20
2023-05-01T01:52:56.648Z,3.31
2023-05-01T01:56:07.873Z,3.34
2023-05-01T01:59:17.005Z,3.38
2023-05-01T02:02:27.529Z,3.42
2023-05-01T02:05:37.688Z,3.41
2023-05-01T02:08:52.071Z,3.44
2023-05-01T02:12:01.831Z,3.44
2023-05-01T02:15:12.988Z,3.48
2023-05-01T02:18:21.016Z,3.48
2023-05-01T02:21:31.433Z,3.49
2023-05-01T02:24:43.424Z,3.51
2023-05-01T02:27:59.014Z,3.52
2023-05-01T02:31:05.576Z,3.60
2023-05-01T02:34:12.634Z,3.64
2023-05-01T02:37:19.591Z,3.63
2023-05-01T02:40:32.288Z,3.65
2023-05-01T02:43:41.941Z,3.61
2023-05-01T02:46:53.759Z,3.56
2023-05-01T02:50:03.480Z,3.59
2023-05-01T02:53:11.928Z,3.60
2023-05-01T02:56:33.226Z,3.60
2023-05-01T02:59:40.671Z,3.58
2023-05-01T03:02:47.660Z,3.59
2023-05-01T03:05:54.899Z,3.61
2023-05-01T03:09:00.840Z,3.61
2023-05-01T03:12:10.278Z,3.63
2023-05-01T03:15:16.690Z,3.62
2023-05-01T03:18:26.532Z,3.68
2023-05-01T03:21:33.248Z,3.64
2023-05-01T03:24:40.064Z,3.60
2023-05-01T03:27:49.114Z,3.67
2023-05-01T03:30:57.473Z,3.72
2023-05-01T03:34:03.665Z,3.70
2023-05-01T03:37:10.542Z,3.69
2023-05-01T03:40:17.246Z,3.67
2023-05-01T03:43:45.482Z,3.61
2023-05-01T03:47:11.805Z,3.53
2023-05-01T03:50:21.561Z,3.55
2023-05-01T03:53:29.867Z,3.40
2023-05-01T03:56:38.936Z,3.36
2023-05-01T03:59:48.380Z,3.29
2023-05-01T04:02:57.216Z,3.26
2023-05-01T04:06:04.313Z,3.26
2023-05-01T04:09:11.416Z,3.34
2023-05-01T04:12:17.412Z,3.47
2023-05-01T04:15:26.729Z,3.64
2023-05-01T04:18:32.761Z,3.82
2023-05-01T04:21:39.819Z,4.09
2023-05-01T04:24:46.007Z,4.49
2023-05-01T04:27:53.285Z,5.08
2023-05-01T04:31:02.160Z,5.66
2023-05-01T04:34:09.107Z,6.50
2023-05-01T04:37:18.225Z,7.06
2023-05-01T04:40:25.435Z,7.61
2023-05-01T04:43:31.521Z,8.32
2023-05-01T04:46:42.083Z,9.14
2023-05-01T04:49:51.008Z,9.67
2023-05-01T04:52:57.925Z,10.07
2023-05-01T04:56:04.251Z,10.05
2023-05-01T04:59:12.728Z,10.62
2023-05-01T05:02:21.788Z,11.17
2023-05-01T05:05:28.723Z,11.01
2023-05-01T05:08:34.990Z,11.24
2023-05-01T05:11:48.667Z,11.69
2023-05-01T05:15:02.240Z,11.52
2023-05-01T05:18:12.965Z,11.91
2023-05-01T05:21:19.637Z,12.42
2023-05-01T05:24:31.180Z,13.11
2023-05-01T05:27:38.533Z,12.70
2023-05-01T05:30:45.302Z,12.04
2023-05-01T05:34:11.786Z,12.01
2023-05-01T05:37:18.784Z,11.30
2023-05-01T05:40:30.470Z,11.26
2023-05-01T05:43:37.824Z,11.29
2023-05-01T05:46:46.164Z,11.18
2023-05-01T05:50:01.100Z,12.20
2023-05-01T05:53:07.119Z,12.53
2023-05-01T05:56:14.260Z,12.77
2023-05-01T05:59:21.795Z,12.78
2023-05-01T06:02:28.753Z,12.43
2023-05-01T06:05:37.820Z,12.54
2023-05-01T06:08:46.545Z,12.66
2023-05-01T06:11:52.710Z,12.08
2023-05-01T06:14:59.557Z,11.75
2023-05-01T06:18:06.427Z,11.60
2023-05-01T06:21:16.826Z,11.37
2023-05-01T06:24:27.815Z,11.91
2023-05-01T06:27:37.587Z,11.02
2023-05-01T06:30:43.969Z,11.80
2023-05-01T06:33:51.671Z,12.27
2023-05-01T06:37:39.077Z,12.11
2023-05-01T06:40:48.368Z,11.90
2023-05-01T06:43:54.502Z,11.40
2023-05-01T06:47:02.157Z,12.46
2023-05-01T06:50:10.443Z,12.99
2023-05-01T06:53:20.302Z,13.29
2023-05-01T06:56:26.515Z,13.37
2023-05-01T06:59:34.531Z,14.16
2023-05-01T07:02:41.388Z,14.66
2023-05-01T07:05:48.661Z,14.66
2023-05-01T07:08:57.423Z,13.89
2023-05-01T07:12:04.260Z,14.62
2023-05-01T07:15:18.348Z,15.58
2023-05-01T07:18:29.737Z,15.65
2023-05-01T07:21:35.756Z,14.68
2023-05-01T07:24:51.565Z,15.64
2023-05-01T07:27:58.681Z,16.11
2023-05-01T07:31:05.522Z,15.24
2023-05-01T07:34:11.882Z,16.16
2023-05-01T07:37:19.103Z,16.29
2023-05-01T07:40:31.940Z,16.13
2023-05-01T07:43:40.986Z,16.45
2023-05-01T07:46:47.544Z,15.67
2023-05-01T07:49:54.512Z,15.05
2023-05-01T07:53:00.741Z,16.10
2023-05-01T07:56:13.207Z,16.16
2023-05-01T07:59:19.598Z,15.47
2023-05-01T08:02:29.789Z,14.67
2023-05-01T08:05:35.961Z,14.63
2023-05-01T08:08:42.934Z,14.45
2023-05-01T08:11:52.481Z,14.86
2023-05-01T08:14:59.566Z,15.28
2023-05-01T08:18:05.819Z,14.16
2023-05-01T08:21:13.906Z,14.02
2023-05-01T08:24:19.957Z,14.09
2023-05-01T08:27:29.838Z,14.06
2023-05-01T08:30:38.090Z,15.11
2023-05-01T08:33:45.080Z,15.55
2023-05-01T08:36:50.978Z,15.03
2023-05-01T08:40:08.588Z,14.77
2023-05-01T08:43:17.952Z,14.67
2023-05-01T08:46:41.590Z,13.46
2023-05-01T08:49:51.126Z,13.99
2023-05-01T08:53:02.476Z,14.47
2023-05-01T08:56:16.391Z,15.24
2023-05-01T08:59:30.548Z,14.81
2023-05-01T09:02:41.322Z,15.30
2023-05-01T09:05:53.356Z,15.39
2023-05-01T09:08:59.345Z,15.49
2023-05-01T09:12:21.484Z,15.80
2023-05-01T09:15:31.849Z,15.56
2023-05-01T09:18:40.443Z,15.98
2023-05-01T09:21:46.788Z,16.08
2023-05-01T09:24:54.919Z,15.14
2023-05-01T09:28:08.522Z,15.00
2023-05-01T09:31:29.382Z,15.45
2023-05-01T09:34:35.420Z,16.21
2023-05-01T09:37:47.547Z,16.85
2023-05-01T09:40:56.955Z,15.95
2023-05-01T09:44:04.524Z,15.19
2023-05-01T09:47:16.609Z,15.32
2023-05-01T09:50:36.790Z,15.02
2023-05-01T09:53:44.122Z,15.91
2023-05-01T09:56:52.826Z,16.42
2023-05-01T10:00:10.528Z,17.64
2023-05-01T10:03:20.077Z,17.66
2023-05-01T10:06:32.290Z,17.81
2023-05-01T10:09:39.019Z,16.36
2023-05-01T10:12:45.043Z,17.39
2023-05-01T10:15:52.444Z,18.13
2023-05-01T10:19:04.675Z,18.46
2023-05-01T10:22:12.676Z,18.45
2023-05-01T10:25:21.102Z,19.10
2023-05-01T10:28:28.970Z,18.49
2023-05-01T10:31:36.215Z,18.64
2023-05-01T10:34:55.163Z,18.17
2023-05-01T10:38:06.382Z,18.09
2023-05-01T10:41:14.267Z,18.40
2023-05-01T10:44:25.038Z,18.65
2023-05-01T10:47:50.538Z,18.70
2023-05-01T10:51:20.704Z,19.04
2023-05-01T10:54:31.011Z,17.84
2023-05-01T10:57:47.488Z,16.93
2023-05-01T11:01:35.886Z,17.84
2023-05-01T11:04:57.338Z,17.97
2023-05-01T11:08:37.884Z,17.66
2023-05-01T11:11:53.905Z,18.30
2023-05-01T11:15:10.123Z,16.99
2023-05-01T11:18:16.304Z,17.06
2023-05-01T11:21:34.374Z,17.42
2023-05-01T11:24:43.676Z,18.26
2023-05-01T11:27:53.258Z,18.18
2023-05-01T11:30:59.527Z,18.70
2023-05-01T11:34:07.715Z,19.24
2023-05-01T11:37:13.914Z,19.83
2023-05-01T11:40:29.713Z,19.46
2023-05-01T11:43:36.047Z,19.38
2023-05-01T11:46:42.987Z,19.39
2023-05-01T11:49:56.087Z,19.72
2023-05-01T11:53:03.244Z,20.04
2023-05-01T11:56:27.038Z,19.65
2023-05-01T11:59:34.711Z,19.71
2023-05-01T12:02:41.269Z,20.17
2023-05-01T12:05:48.995Z,19.99
2023-05-01T12:08:55.717Z,19.52
2023-05-01T12:12:06.045Z,18.87
2023-05-01T12:15:14.419Z,19.41
2023-05-01T12:18:22.918Z,19.66
2023-05-01T12:21:36.987Z,19.80
2023-05-01T12:24:54.495Z,19.75
2023-05-01T12:28:20.172Z,19.86
2023-05-01T12:31:28.012Z,19.26
2023-05-01T12:34:34.745Z,19.32
2023-05-01T12:37:41.923Z,19.38
2023-05-01T12:40:57.043Z,18.56
2023-05-01T12:44:18.133Z,18.02
2023-05-01T12:47:26.614Z,18.52
2023-05-01T12:50:40.009Z,17.52
2023-05-01T12:53:49.463Z,16.80
2023-05-01T12:56:58.748Z,16.63
2023-05-01T13:00:09.908Z,17.10
2023-05-01T13:03:19.063Z,17.39
2023-05-01T13:06:25.491Z,17.39
2023-05-01T13:09:33.901Z,17.45
2023-05-01T13:12:48.505Z,17.58
2023-05-01T13:16:09.407Z,17.30
2023-05-01T13:19:17.011Z,17.48
2023-05-01T13:22:33.431Z,17.70
2023-05-01T13:25:39.510Z,17.62
2023-05-01T13:28:48.699Z,17.53
2023-05-01T13:32:06.738Z,16.65
2023-05-01T13:35:13.991Z,16.75
2023-05-01T13:38:23.731Z,16.84
2023-05-01T13:41:31.585Z,17.02
2023-05-01T13:44:49.294Z,16.88
2023-05-01T13:47:58.813Z,17.11
2023-05-01T13:51:05.041Z,17.15
2023-05-01T13:54:12.874Z,17.38
2023-05-01T13:57:26.721Z,17.32
2023-05-01T14:00:33.535Z,17.52
2023-05-01T14:03:46.645Z,17.30
2023-05-01T14:06:53.844Z,17.48
2023-05-01T14:10:05.204Z,17.20
2023-05-01T14:13:12.237Z,17.34
2023-05-01T14:16:28.072Z,17.39
2023-05-01T14:19:37.798Z,17.44
2023-05-01T14:22:51.969Z,17.25
2023-05-01T14:25:58.762Z,16.84
2023-05-01T14:29:04.781Z,17.08
2023-05-01T14:32:13.604Z,17.34
2023-05-01T14:35:25.127Z,17.49
2023-05-01T14:38:39.417Z,17.46
2023-05-01T14:41:46.713Z,17.33
2023-05-01T14:44:58.198Z,17.36
2023-05-01T14:48:05.585Z,17.50
2023-05-01T14:51:22.926Z,17.57
2023-05-01T14:54:31.084Z,17.83
2023-05-01T14:57:38.018Z,17.92
2023-05-01T15:00:44.240Z,17.65
2023-05-01T15:03:51.270Z,17.73
2023-05-01T15:06:59.889Z,17.72
2023-05-01T15:10:12.277Z,17.69
2023-05-01T15:13:18.281Z,17.74
2023-05-01T15:16:25.245Z,17.90
2023-05-01T15:19:31.240Z,17.82
2023-05-01T15:22:41.142Z,18.07
2023-05-01T15:25:48.205Z,17.89
2023-05-01T15:28:55.237Z,17.48
2023-05-01T15:32:12.080Z,17.60
2023-05-01T15:35:21.748Z,17.76
2023-05-01T15:38:30.528Z,17.50
2023-05-01T15:41:37.604Z,17.49
2023-05-01T15:44:43.559Z,17.47
2023-05-01T15:47:50.611Z,17.16
2023-05-01T15:50:56.630Z,17.03
2023-05-01T15:54:06.611Z,16.98
2023-05-01T15:57:13.312Z,17.18
2023-05-01T16:00:28.837Z,17.06
2023-05-01T16:03:39.172Z,16.91
2023-05-01T16:06:46.240Z,17.11
2023-05-01T16:09:56.163Z,17.19
2023-05-01T16:13:03.184Z,17.35
2023-05-01T16:16:14.699Z,17.29
2023-05-01T16:19:28.880Z,17.05
2023-05-01T16:22:36.389Z,17.23
2023-05-01T16:25:51.687Z,17.14
2023-05-01T16:29:08.247Z,17.20
2023-05-01T16:32:15.409Z,17.16
2023-05-01T16:35:21.830Z,17.17
2023-05-01T16:38:30.244Z,17.12
2023-05-01T16:41:48.258Z,16.67
2023-05-01T16:44:56.896Z,16.74
2023-05-01T16:48:03.143Z,16.70
2023-05-01T16:51:14.878Z,16.52
2023-05-01T16:54:32.381Z,16.47
2023-05-01T16:57:44.132Z,16.55
2023-05-01T17:00:50.702Z,16.52
2023-05-01T17:04:23.865Z,16.44
2023-05-01T17:07:31.474Z,16.25
2023-05-01T17:10:38.707Z,16.16
2023-05-01T17:13:47.829Z,16.05
2023-05-01T17:16:58.965Z,15.90
2023-05-01T17:20:11.752Z,15.82
2023-05-01T17:23:19.144Z,15.77
2023-05-01T17:26:28.643Z,15.77
2023-05-01T17:29:39.512Z,15.57
2023-05-01T17:32:46.642Z,15.49
2023-05-01T17:35:55.637Z,15.42
2023-05-01T17:39:01.864Z,15.32
2023-05-01T17:42:15.756Z,15.05
2023-05-01T17:45:31.918Z,14.87
2023-05-01T17:48:38.716Z,14.79
2023-05-01T17:51:46.858Z,14.71
2023-05-01T17:54:53.796Z,14.61
2023-05-01T17:58:00.160Z,14.56
2023-05-01T18:01:10.569Z,14.49
2023-05-01T18:04:23.608Z,14.38
2023-05-01T18:07:30.905Z,14.34
2023-05-01T18:10:42.132Z,14.26
2023-05-01T18:13:49.176Z,14.09
2023-05-01T18:16:58.317Z,14.01
2023-05-01T18:20:05.690Z,13.89
2023-05-01T18:23:11.696Z,13.71
2023-05-01T18:26:19.535Z,13.63
2023-05-01T18:29:25.685Z,13.57
2023-05-01T18:32:46.936Z,13.47
2023-05-01T18:35:54.523Z,13.33
2023-05-01T18:39:02.252Z,13.28
2023-05-01T18:42:13.768Z,13.16
2023-05-01T18:45:20.775Z,13.10
2023-05-01T18:48:29.840Z,12.99
2023-05-01T18:51:37.153Z,12.99
2023-05-01T18:54:54.825Z,12.92
2023-05-01T18:58:02.343Z,12.88
2023-05-01T19:01:08.422Z,12.75
2023-05-01T19:04:20.393Z,12.71
2023-05-01T19:07:29.561Z,12.62
2023-05-01T19:10:37.471Z,12.67
2023-05-01T19:13:43.598Z,12.61
2023-05-01T19:16:50.601Z,12.55
2023-05-01T19:19:59.536Z,12.53
2023-05-01T19:23:06.776Z,12.49
2023-05-01T19:26:14.124Z,12.49
2023-05-01T19:29:31.275Z,12.52
2023-05-01T19:32:37.429Z,12.46
2023-05-01T19:35:47.203Z,12.38
2023-05-01T19:38:56.608Z,12.37
2023-05-01T19:42:03.723Z,12.30
2023-05-01T19:45:23.919Z,12.26
2023-05-01T19:48:31.241Z,12.20
2023-05-01T19:51:44.372Z,12.21
2023-05-01T19:54:51.319Z,12.17
2023-05-01T19:57:58.138Z,12.04
2023-05-01T20:01:08.687Z,11.91
2023-05-01T20:04:15.117Z,11.90
2023-05-01T20:07:24.725Z,11.78
2023-05-01T20:10:37.179Z,11.69
2023-05-01T20:13:45.694Z,11.49
2023-05-01T20:16:53.434Z,11.33
2023-05-01T20:20:00.679Z,11.13
2023-05-01T20:23:17.868Z,10.92
2023-05-01T20:26:26.528Z,10.90
2023-05-01T20:29:32.752Z,10.74
2023-05-01T20:32:42.631Z,10.65
2023-05-01T20:35:48.779Z,10.68
2023-05-01T20:38:58.251Z,10.66
2023-05-01T20:42:05.546Z,10.59
2023-05-01T20:45:16.127Z,10.57
2023-05-01T20:48:22.266Z,10.68
2023-05-01T20:51:32.385Z,10.78
2023-05-01T20:54:43.336Z,10.68
2023-05-01T20:57:50.432Z,10.71
2023-05-01T21:00:58.281Z,10.58
2023-05-01T21:04:07.230Z,10.59
2023-05-01T21:07:13.457Z,10.49
2023-05-01T21:10:22.948Z,10.54
2023-05-01T21:13:30.875Z,10.44
2023-05-01T21:16:37.956Z,10.34
2023-05-01T21:19:48.547Z,10.32
2023-05-01T21:22:55.454Z,10.25
2023-05-01T21:26:04.931Z,10.12
2023-05-01T21:29:12.547Z,10.23
2023-05-01T21:32:20.487Z,10.25
2023-05-01T21:35:30.136Z,10.26
2023-05-01T21:38:38.849Z,10.26
2023-05-01T21:41:55.079Z,10.20
2023-05-01T21:45:05.461Z,10.10
2023-05-01T21:48:16.800Z,10.15
2023-05-01T21:51:29.199Z,10.15
2023-05-01T21:54:37.047Z,10.12
2023-05-01T21:57:45.750Z,10.04
2023-05-01T22:00:53.580Z,9.99
2023-05-01T22:04:00.478Z,10.01
2023-05-01T22:07:09.297Z,9.94
2023-05-01T22:10:23.336Z,9.83
2023-05-01T22:13:36.207Z,9.83
2023-05-01T22:16:42.221Z,9.83
2023-05-01T22:19:49.047Z,9.74
2023-05-01T22:22:55.170Z,9.72
2023-05-01T22:26:02.858Z,9.73
2023-05-01T22:29:11.479Z,9.66
2023-05-01T22:32:18.577Z,9.72
2023-05-01T22:35:24.531Z,9.69
2023-05-01T22:38:31.686Z,9.74
2023-05-01T22:41:37.550Z,9.68
2023-05-01T22:44:50.176Z,9.70
2023-05-01T22:47:56.670Z,9.73
2023-05-01T22:51:03.726Z,9.73
2023-05-01T22:54:09.650Z,9.76
2023-05-01T22:57:16.782Z,9.66
2023-05-01T23:00:25.664Z,9.61
2023-05-01T23:03:35.733Z,9.67
2023-05-01T23:06:43.533Z,9.63
2023-05-01T23:09:50.337Z,9.65
2023-05-01T23:12:56.246Z,9.63
2023-05-01T23:16:11.513Z,9.39
2023-05-01T23:19:25.975Z,9.30
2023-05-01T23:22:38.425Z,9.42
2023-05-01T23:25:53.428Z,9.50
2023-05-01T23:29:00.596Z,9.54
2023-05-01T23:32:14.121Z,9.53
2023-05-01T23:35:26.690Z,9.35
2023-05-01T23:38:33.537Z,9.36
2023-05-01T23:41:54.342Z,9.28
2023-05-01T23:45:01.132Z,8.98
2023-05-01T23:48:16.153Z,9.02
2023-05-01T23:51:22.342Z,8.94
2023-05-01T23:54:29.433Z,8.98
2023-05-01T23:57:35.493Z,9.04
